sensor_id;sensor_type;location;lat;lon;timestamp;pressure;altitude;pressure_sealevel;temperature;humidity
9225;BME280;4647;48.072;11.616;2023-11-22T00:00:31;95327.91;;;6.26;95.90
9225;BME280;4647;48.072;11.616;2023-11-22T00:02:59;95324.06;;;6.20;96.35
9225;BME280;4647;48.072;11.616;2023-11-22T00:05:28;95328.63;;;6.12;96.38
9225;BME280;4647;48.072;11.616;2023-11-22T00:07:56;95326.69;;;6.13;96.41
9225;BME280;4647;48.072;11.616;2023-11-22T00:10:25;95327.84;;;6.12;96.82
9225;BME280;4647;48.072;11.616;2023-11-22T00:12:56;95324.44;;;6.29;95.40
9225;BME280;4647;48.072;11.616;2023-11-22T00:15:25;95316.69;;;6.10;96.61
9225;BME280;4647;48.072;11.616;2023-11-22T00:17:54;95334.03;;;6.20;96.15
9225;BME280;4647;48.072;11.616;2023-11-22T00:20:30;95333.66;;;6.18;95.99
9225;BME280;4647;48.072;11.616;2023-11-22T00:22:59;95301.97;;;5.86;95.88
9225;BME280;4647;48.072;11.616;2023-11-22T00:25:28;95319.81;;;6.15;96.10
9225;BME280;4647;48.072;11.616;2023-11-22T00:28:00;95327.84;;;6.08;95.64
9225;BME280;4647;48.072;11.616;2023-11-22T00:30:31;95334.03;;;6.16;95.05
9225;BME280;4647;48.072;11.616;2023-11-22T00:33:00;95331.69;;;6.11;95.39
9225;BME280;4647;48.072;11.616;2023-11-22T00:35:28;95330.16;;;6.13;94.86
9225;BME280;4647;48.072;11.616;2023-11-22T00:37:58;95340.09;;;5.95;95.96
9225;BME280;4647;48.072;11.616;2023-11-22T00:40:27;95343.84;;;5.83;97.08
9225;BME280;4647;48.072;11.616;2023-11-22T00:42:59;95337.41;;;5.92;97.42
9225;BME280;4647;48.072;11.616;2023-11-22T00:45:28;95343.91;;;5.91;96.70
9225;BME280;4647;48.072;11.616;2023-11-22T00:47:57;95352.25;;;5.75;97.21
9225;BME280;4647;48.072;11.616;2023-11-22T00:50:26;95344.59;;;5.77;97.06
9225;BME280;4647;48.072;11.616;2023-11-22T00:52:54;95347.66;;;5.75;97.15
9225;BME280;4647;48.072;11.616;2023-11-22T00:55:26;95346.13;;;5.81;96.88
9225;BME280;4647;48.072;11.616;2023-11-22T00:57:55;95353.41;;;5.74;96.59
9225;BME280;4647;48.072;11.616;2023-11-22T01:00:33;95334.94;;;5.69;96.70
9225;BME280;4647;48.072;11.616;2023-11-22T01:03:02;95354.16;;;5.71;97.71
9225;BME280;4647;48.072;11.616;2023-11-22T01:05:35;95358.91;;;5.95;96.23
9225;BME280;4647;48.072;11.616;2023-11-22T01:08:03;95360.44;;;5.93;96.99
9225;BME280;4647;48.072;11.616;2023-11-22T01:10:34;95360.31;;;5.75;97.62
9225;BME280;4647;48.072;11.616;2023-11-22T01:13:02;95364.84;;;5.64;97.47
9225;BME280;4647;48.072;11.616;2023-11-22T01:15:33;95364.53;;;5.69;98.01
9225;BME280;4647;48.072;11.616;2023-11-22T01:18:02;95360.31;;;5.75;97.40
9225;BME280;4647;48.072;11.616;2023-11-22T01:20:31;95366.50;;;5.86;96.77
9225;BME280;4647;48.072;11.616;2023-11-22T01:23:04;95361.94;;;5.90;96.46
9225;BME280;4647;48.072;11.616;2023-11-22T01:25:33;95364.19;;;5.81;96.90
9225;BME280;4647;48.072;11.616;2023-11-22T01:28:05;95361.75;;;5.58;97.67
9225;BME280;4647;48.072;11.616;2023-11-22T01:30:40;95374.16;;;5.77;96.89
9225;BME280;4647;48.072;11.616;2023-11-22T01:33:12;95373.31;;;5.66;96.68
9225;BME280;4647;48.072;11.616;2023-11-22T01:35:42;95369.84;;;5.65;97.29
9225;BME280;4647;48.072;11.616;2023-11-22T01:38:11;95367.63;;;5.78;96.98
9225;BME280;4647;48.072;11.616;2023-11-22T01:40:44;95363.78;;;5.79;95.86
9225;BME280;4647;48.072;11.616;2023-11-22T01:43:14;95371.13;;;5.89;96.03
9225;BME280;4647;48.072;11.616;2023-11-22T01:45:45;95379.28;;;5.93;95.42
9225;BME280;4647;48.072;11.616;2023-11-22T01:48:14;95379.63;;;5.91;95.30
9225;BME280;4647;48.072;11.616;2023-11-22T01:50:43;95381.13;;;5.89;95.55
9225;BME280;4647;48.072;11.616;2023-11-22T01:53:13;95381.06;;;5.74;96.69
9225;BME280;4647;48.072;11.616;2023-11-22T01:55:43;95385.59;;;5.67;96.65
9225;BME280;4647;48.072;11.616;2023-11-22T01:58:12;95373.13;;;5.96;95.94
9225;BME280;4647;48.072;11.616;2023-11-22T02:00:48;95377.75;;;5.95;95.38
9225;BME280;4647;48.072;11.616;2023-11-22T02:03:18;95380.59;;;5.62;96.36
9225;BME280;4647;48.072;11.616;2023-11-22T02:05:47;95378.44;;;5.89;95.91
9225;BME280;4647;48.072;11.616;2023-11-22T02:08:18;95380.44;;;5.95;95.49
9225;BME280;4647;48.072;11.616;2023-11-22T02:10:57;95375.28;;;5.69;95.92
9225;BME280;4647;48.072;11.616;2023-11-22T02:13:25;95384.78;;;5.55;98.20
9225;BME280;4647;48.072;11.616;2023-11-22T02:15:57;95389.75;;;5.53;98.42
9225;BME280;4647;48.072;11.616;2023-11-22T02:18:27;95402.41;;;5.02;98.76
9225;BME280;4647;48.072;11.616;2023-11-22T02:20:56;95393.78;;;4.45;99.69
9225;BME280;4647;48.072;11.616;2023-11-22T02:23:27;95403.38;;;4.12;99.98
9225;BME280;4647;48.072;11.616;2023-11-22T02:25:58;95419.13;;;4.17;100.00
9225;BME280;4647;48.072;11.616;2023-11-22T02:28:28;95413.91;;;3.98;100.00
9225;BME280;4647;48.072;11.616;2023-11-22T02:30:57;95417.84;;;3.78;100.00
9225;BME280;4647;48.072;11.616;2023-11-22T02:33:26;95407.34;;;3.39;100.00
9225;BME280;4647;48.072;11.616;2023-11-22T02:35:55;95424.88;;;3.33;100.00
9225;BME280;4647;48.072;11.616;2023-11-22T02:38:23;95426.66;;;3.25;100.00
9225;BME280;4647;48.072;11.616;2023-11-22T02:40:56;95435.19;;;3.08;100.00
9225;BME280;4647;48.072;11.616;2023-11-22T02:43:24;95434.63;;;2.99;97.03
9225;BME280;4647;48.072;11.616;2023-11-22T02:45:53;95432.25;;;2.94;94.93
9225;BME280;4647;48.072;11.616;2023-11-22T02:48:21;95440.94;;;2.87;94.35
9225;BME280;4647;48.072;11.616;2023-11-22T02:50:51;95438.06;;;2.76;93.19
9225;BME280;4647;48.072;11.616;2023-11-22T02:53:20;95453.88;;;2.62;92.42
9225;BME280;4647;48.072;11.616;2023-11-22T02:55:49;95447.22;;;2.75;93.44
9225;BME280;4647;48.072;11.616;2023-11-22T02:58:23;95454.69;;;2.66;94.00
9225;BME280;4647;48.072;11.616;2023-11-22T03:00:54;95451.72;;;2.71;93.94
9225;BME280;4647;48.072;11.616;2023-11-22T03:03:23;95444.72;;;2.63;93.49
9225;BME280;4647;48.072;11.616;2023-11-22T03:05:52;95454.22;;;2.61;94.61
9225;BME280;4647;48.072;11.616;2023-11-22T03:08:21;95459.03;;;2.74;93.55
9225;BME280;4647;48.072;11.616;2023-11-22T03:10:49;95459.56;;;2.61;95.54
9225;BME280;4647;48.072;11.616;2023-11-22T03:13:24;95440.50;;;2.43;94.61
9225;BME280;4647;48.072;11.616;2023-11-22T03:16:00;95462.63;;;2.82;94.56
9225;BME280;4647;48.072;11.616;2023-11-22T03:18:29;95467.38;;;2.50;95.43
9225;BME280;4647;48.072;11.616;2023-11-22T03:20:58;95466.59;;;2.69;95.51
9225;BME280;4647;48.072;11.616;2023-11-22T03:23:27;95442.34;;;2.20;94.05
9225;BME280;4647;48.072;11.616;2023-11-22T03:25:57;95479.25;;;2.53;93.91
9225;BME280;4647;48.072;11.616;2023-11-22T03:28:28;95480.97;;;2.41;95.52
9225;BME280;4647;48.072;11.616;2023-11-22T03:30:58;95496.09;;;2.53;93.57
9225;BME280;4647;48.072;11.616;2023-11-22T03:33:30;95485.13;;;2.39;94.63
9225;BME280;4647;48.072;11.616;2023-11-22T03:36:00;95498.59;;;2.27;93.99
9225;BME280;4647;48.072;11.616;2023-11-22T03:38:29;95500.38;;;2.38;95.19
9225;BME280;4647;48.072;11.616;2023-11-22T03:40:57;95508.47;;;2.42;94.97
9225;BME280;4647;48.072;11.616;2023-11-22T03:43:28;95515.31;;;2.39;95.21
9225;BME280;4647;48.072;11.616;2023-11-22T03:45:59;95495.09;;;2.23;94.86
9225;BME280;4647;48.072;11.616;2023-11-22T03:48:27;95508.38;;;2.19;94.55
9225;BME280;4647;48.072;11.616;2023-11-22T03:50:59;95518.06;;;2.08;95.32
9225;BME280;4647;48.072;11.616;2023-11-22T03:53:30;95519.69;;;2.12;95.32
9225;BME280;4647;48.072;11.616;2023-11-22T03:55:58;95529.03;;;2.03;94.33
9225;BME280;4647;48.072;11.616;2023-11-22T03:58:29;95522.31;;;1.93;95.40
9225;BME280;4647;48.072;11.616;2023-11-22T04:01:00;95544.91;;;1.64;96.16
9225;BME280;4647;48.072;11.616;2023-11-22T04:03:29;95543.56;;;1.54;96.62
9225;BME280;4647;48.072;11.616;2023-11-22T04:05:57;95546.13;;;1.51;96.96
9225;BME280;4647;48.072;11.616;2023-11-22T04:08:26;95544.41;;;1.43;98.08
9225;BME280;4647;48.072;11.616;2023-11-22T04:10:54;95525.28;;;1.25;99.16
9225;BME280;4647;48.072;11.616;2023-11-22T04:13:23;95552.22;;;1.36;99.73
9225;BME280;4647;48.072;11.616;2023-11-22T04:15:54;95558.19;;;1.61;97.95
9225;BME280;4647;48.072;11.616;2023-11-22T04:18:23;95554.16;;;1.67;97.71
9225;BME280;4647;48.072;11.616;2023-11-22T04:20:52;95547.53;;;1.45;97.65
9225;BME280;4647;48.072;11.616;2023-11-22T04:23:20;95541.84;;;1.46;99.26
9225;BME280;4647;48.072;11.616;2023-11-22T04:25:49;95554.47;;;1.65;97.61
9225;BME280;4647;48.072;11.616;2023-11-22T04:28:19;95555.50;;;1.76;97.22
9225;BME280;4647;48.072;11.616;2023-11-22T04:30:47;95554.94;;;1.67;97.01
9225;BME280;4647;48.072;11.616;2023-11-22T04:33:18;95532.53;;;1.56;96.97
9225;BME280;4647;48.072;11.616;2023-11-22T04:35:47;95563.06;;;2.06;96.62
9225;BME280;4647;48.072;11.616;2023-11-22T04:38:16;95558.34;;;1.99;95.69
9225;BME280;4647;48.072;11.616;2023-11-22T04:40:45;95559.44;;;2.14;95.61
9225;BME280;4647;48.072;11.616;2023-11-22T04:43:13;95549.97;;;2.36;94.05
9225;BME280;4647;48.072;11.616;2023-11-22T04:45:42;95570.03;;;2.10;95.04
9225;BME280;4647;48.072;11.616;2023-11-22T04:48:13;95581.53;;;2.30;95.23
9225;BME280;4647;48.072;11.616;2023-11-22T04:50:45;95582.50;;;2.38;94.70
9225;BME280;4647;48.072;11.616;2023-11-22T04:53:13;95581.81;;;2.25;95.47
9225;BME280;4647;48.072;11.616;2023-11-22T04:55:42;95579.94;;;2.26;95.22
9225;BME280;4647;48.072;11.616;2023-11-22T04:58:11;95586.88;;;2.46;94.51
9225;BME280;4647;48.072;11.616;2023-11-22T05:00:39;95590.88;;;2.21;94.89
9225;BME280;4647;48.072;11.616;2023-11-22T05:03:08;95596.31;;;2.24;94.28
9225;BME280;4647;48.072;11.616;2023-11-22T05:05:39;95594.41;;;2.25;94.26
9225;BME280;4647;48.072;11.616;2023-11-22T05:08:10;95603.34;;;2.32;93.38
9225;BME280;4647;48.072;11.616;2023-11-22T05:10:39;95604.00;;;2.10;92.69
9225;BME280;4647;48.072;11.616;2023-11-22T05:13:07;95610.22;;;2.14;92.65
9225;BME280;4647;48.072;11.616;2023-11-22T05:15:36;95605.53;;;2.11;92.32
9225;BME280;4647;48.072;11.616;2023-11-22T05:18:05;95603.84;;;2.03;91.79
9225;BME280;4647;48.072;11.616;2023-11-22T05:20:34;95624.44;;;2.02;91.67
9225;BME280;4647;48.072;11.616;2023-11-22T05:23:03;95604.47;;;1.96;92.02
9225;BME280;4647;48.072;11.616;2023-11-22T05:25:34;95626.75;;;2.04;91.63
9225;BME280;4647;48.072;11.616;2023-11-22T05:28:02;95621.84;;;2.06;90.72
9225;BME280;4647;48.072;11.616;2023-11-22T05:30:31;95633.06;;;1.96;91.67
9225;BME280;4647;48.072;11.616;2023-11-22T05:32:59;95627.63;;;2.08;91.70
9225;BME280;4647;48.072;11.616;2023-11-22T05:35:28;95631.09;;;1.93;91.98
9225;BME280;4647;48.072;11.616;2023-11-22T05:37:56;95633.94;;;2.00;92.21
9225;BME280;4647;48.072;11.616;2023-11-22T05:40:25;95639.69;;;2.18;91.05
9225;BME280;4647;48.072;11.616;2023-11-22T05:42:56;95613.31;;;1.84;91.31
9225;BME280;4647;48.072;11.616;2023-11-22T05:45:24;95641.75;;;2.08;90.70
9225;BME280;4647;48.072;11.616;2023-11-22T05:47:53;95654.44;;;1.96;91.00
9225;BME280;4647;48.072;11.616;2023-11-22T05:50:24;95657.38;;;2.06;90.92
9225;BME280;4647;48.072;11.616;2023-11-22T05:52:52;95659.88;;;1.99;91.65
9225;BME280;4647;48.072;11.616;2023-11-22T05:55:22;95661.59;;;2.23;91.72
9225;BME280;4647;48.072;11.616;2023-11-22T05:57:50;95669.59;;;2.39;91.10
9225;BME280;4647;48.072;11.616;2023-11-22T06:00:21;95676.75;;;2.35;90.41
9225;BME280;4647;48.072;11.616;2023-11-22T06:02:52;95674.59;;;2.25;89.45
9225;BME280;4647;48.072;11.616;2023-11-22T06:05:20;95656.16;;;2.04;91.17
9225;BME280;4647;48.072;11.616;2023-11-22T06:07:50;95683.75;;;2.24;90.47
9225;BME280;4647;48.072;11.616;2023-11-22T06:10:19;95672.53;;;1.87;91.32
9225;BME280;4647;48.072;11.616;2023-11-22T06:12:48;95695.13;;;2.05;91.04
9225;BME280;4647;48.072;11.616;2023-11-22T06:15:17;95699.44;;;1.94;89.57
9225;BME280;4647;48.072;11.616;2023-11-22T06:17:55;95685.72;;;1.79;89.73
9225;BME280;4647;48.072;11.616;2023-11-22T06:20:26;95698.56;;;1.90;90.11
9225;BME280;4647;48.072;11.616;2023-11-22T06:22:56;95695.53;;;1.75;89.99
9225;BME280;4647;48.072;11.616;2023-11-22T06:25:24;95686.91;;;1.82;89.67
9225;BME280;4647;48.072;11.616;2023-11-22T06:27:54;95693.38;;;1.81;90.26
9225;BME280;4647;48.072;11.616;2023-11-22T06:30:28;95693.88;;;1.71;89.97
9225;BME280;4647;48.072;11.616;2023-11-22T06:33:02;95706.81;;;1.84;89.85
9225;BME280;4647;48.072;11.616;2023-11-22T06:35:30;95705.97;;;1.80;89.50
9225;BME280;4647;48.072;11.616;2023-11-22T06:38:01;95713.97;;;1.80;90.23
9225;BME280;4647;48.072;11.616;2023-11-22T06:40:31;95725.00;;;1.79;90.87
9225;BME280;4647;48.072;11.616;2023-11-22T06:43:00;95729.81;;;1.73;91.45
9225;BME280;4647;48.072;11.616;2023-11-22T06:45:32;95727.84;;;1.86;90.94
9225;BME280;4647;48.072;11.616;2023-11-22T06:48:04;95727.06;;;1.85;90.95
9225;BME280;4647;48.072;11.616;2023-11-22T06:50:33;95735.59;;;1.75;90.40
9225;BME280;4647;48.072;11.616;2023-11-22T06:53:01;95745.78;;;1.85;90.45
9225;BME280;4647;48.072;11.616;2023-11-22T06:55:33;95746.16;;;2.00;89.58
9225;BME280;4647;48.072;11.616;2023-11-22T06:58:04;95744.13;;;1.81;89.51
9225;BME280;4647;48.072;11.616;2023-11-22T07:00:36;95734.31;;;1.85;89.92
9225;BME280;4647;48.072;11.616;2023-11-22T07:03:08;95750.84;;;1.75;90.97
9225;BME280;4647;48.072;11.616;2023-11-22T07:05:37;95750.88;;;1.91;91.28
9225;BME280;4647;48.072;11.616;2023-11-22T07:08:06;95760.53;;;1.95;90.55
9225;BME280;4647;48.072;11.616;2023-11-22T07:10:39;95758.44;;;1.73;91.54
9225;BME280;4647;48.072;11.616;2023-11-22T07:13:08;95766.28;;;1.81;91.57
9225;BME280;4647;48.072;11.616;2023-11-22T07:15:38;95763.09;;;1.76;90.90
9225;BME280;4647;48.072;11.616;2023-11-22T07:18:09;95759.09;;;1.70;92.05
9225;BME280;4647;48.072;11.616;2023-11-22T07:20:42;95769.53;;;1.75;91.57
9225;BME280;4647;48.072;11.616;2023-11-22T07:23:10;95777.66;;;1.78;91.93
9225;BME280;4647;48.072;11.616;2023-11-22T07:25:43;95766.78;;;1.71;91.68
9225;BME280;4647;48.072;11.616;2023-11-22T07:28:11;95777.25;;;1.92;91.16
9225;BME280;4647;48.072;11.616;2023-11-22T07:30:42;95789.34;;;2.02;90.68
9225;BME280;4647;48.072;11.616;2023-11-22T07:33:17;95793.09;;;1.85;91.87
9225;BME280;4647;48.072;11.616;2023-11-22T07:35:46;95799.28;;;1.89;90.86
9225;BME280;4647;48.072;11.616;2023-11-22T07:38:15;95806.16;;;1.74;91.10
9225;BME280;4647;48.072;11.616;2023-11-22T07:40:46;95791.06;;;1.66;91.51
9225;BME280;4647;48.072;11.616;2023-11-22T07:43:16;95812.44;;;1.94;91.62
9225;BME280;4647;48.072;11.616;2023-11-22T07:45:44;95824.16;;;1.90;91.32
9225;BME280;4647;48.072;11.616;2023-11-22T07:48:18;95826.13;;;1.93;90.89
9225;BME280;4647;48.072;11.616;2023-11-22T07:50:48;95824.50;;;2.04;90.83
9225;BME280;4647;48.072;11.616;2023-11-22T07:53:20;95832.88;;;2.02;90.91
9225;BME280;4647;48.072;11.616;2023-11-22T07:55:52;95836.28;;;2.15;90.24
9225;BME280;4647;48.072;11.616;2023-11-22T07:58:25;95832.63;;;2.07;89.88
9225;BME280;4647;48.072;11.616;2023-11-22T08:00:53;95836.56;;;1.98;89.96
9225;BME280;4647;48.072;11.616;2023-11-22T08:03:25;95840.34;;;2.25;88.87
9225;BME280;4647;48.072;11.616;2023-11-22T08:05:54;95830.53;;;2.01;89.68
9225;BME280;4647;48.072;11.616;2023-11-22T08:08:23;95840.22;;;2.05;89.75
9225;BME280;4647;48.072;11.616;2023-11-22T08:10:54;95843.47;;;1.99;89.27
9225;BME280;4647;48.072;11.616;2023-11-22T08:13:23;95844.63;;;1.85;89.83
9225;BME280;4647;48.072;11.616;2023-11-22T08:15:52;95848.75;;;2.11;89.34
9225;BME280;4647;48.072;11.616;2023-11-22T08:18:25;95856.91;;;2.02;88.89
9225;BME280;4647;48.072;11.616;2023-11-22T08:20:54;95865.00;;;2.18;88.47
9225;BME280;4647;48.072;11.616;2023-11-22T08:23:24;95872.00;;;1.95;88.64
9225;BME280;4647;48.072;11.616;2023-11-22T08:25:52;95876.66;;;1.98;88.05
9225;BME280;4647;48.072;11.616;2023-11-22T08:28:22;95884.19;;;2.08;87.63
9225;BME280;4647;48.072;11.616;2023-11-22T08:30:51;95877.09;;;2.00;88.03
9225;BME280;4647;48.072;11.616;2023-11-22T08:33:20;95871.16;;;2.06;88.43
9225;BME280;4647;48.072;11.616;2023-11-22T08:35:51;95867.59;;;2.30;88.20
9225;BME280;4647;48.072;11.616;2023-11-22T08:38:24;95878.44;;;2.50;87.19
9225;BME280;4647;48.072;11.616;2023-11-22T08:40:52;95872.91;;;2.42;87.37
9225;BME280;4647;48.072;11.616;2023-11-22T08:43:23;95869.75;;;2.25;88.32
9225;BME280;4647;48.072;11.616;2023-11-22T08:45:52;95878.22;;;2.27;89.46
9225;BME280;4647;48.072;11.616;2023-11-22T08:48:22;95895.53;;;2.17;89.53
9225;BME280;4647;48.072;11.616;2023-11-22T08:50:53;95883.56;;;1.99;90.33
9225;BME280;4647;48.072;11.616;2023-11-22T08:53:22;95890.19;;;2.17;89.22
9225;BME280;4647;48.072;11.616;2023-11-22T08:55:51;95894.25;;;1.99;89.93
9225;BME280;4647;48.072;11.616;2023-11-22T08:58:20;95907.09;;;2.21;89.30
9225;BME280;4647;48.072;11.616;2023-11-22T09:00:53;95907.34;;;2.16;89.37
9225;BME280;4647;48.072;11.616;2023-11-22T09:03:25;95911.13;;;2.15;88.18
9225;BME280;4647;48.072;11.616;2023-11-22T09:05:56;95905.34;;;2.13;89.72
9225;BME280;4647;48.072;11.616;2023-11-22T09:08:25;95917.53;;;2.26;88.73
9225;BME280;4647;48.072;11.616;2023-11-22T09:10:55;95923.38;;;2.04;89.29
9225;BME280;4647;48.072;11.616;2023-11-22T09:13:27;95916.22;;;2.20;88.80
9225;BME280;4647;48.072;11.616;2023-11-22T09:15:56;95915.97;;;1.97;88.88
9225;BME280;4647;48.072;11.616;2023-11-22T09:18:24;95911.06;;;1.99;89.73
9225;BME280;4647;48.072;11.616;2023-11-22T09:20:55;95924.56;;;1.91;90.07
9225;BME280;4647;48.072;11.616;2023-11-22T09:23:24;95938.91;;;1.86;90.53
9225;BME280;4647;48.072;11.616;2023-11-22T09:25:52;95943.50;;;1.61;90.62
9225;BME280;4647;48.072;11.616;2023-11-22T09:28:21;95946.59;;;1.75;90.28
9225;BME280;4647;48.072;11.616;2023-11-22T09:30:50;95943.38;;;1.82;90.14
9225;BME280;4647;48.072;11.616;2023-11-22T09:33:18;95952.53;;;2.09;89.90
9225;BME280;4647;48.072;11.616;2023-11-22T09:35:47;95947.38;;;1.76;90.94
9225;BME280;4647;48.072;11.616;2023-11-22T09:38:19;95951.03;;;1.83;90.84
9225;BME280;4647;48.072;11.616;2023-11-22T09:40:48;95959.09;;;1.71;90.19
9225;BME280;4647;48.072;11.616;2023-11-22T09:43:19;95953.75;;;1.47;90.51
9225;BME280;4647;48.072;11.616;2023-11-22T09:45:50;95958.84;;;1.76;91.36
9225;BME280;4647;48.072;11.616;2023-11-22T09:48:21;95963.09;;;1.77;91.86
9225;BME280;4647;48.072;11.616;2023-11-22T09:50:57;95963.72;;;1.99;91.33
9225;BME280;4647;48.072;11.616;2023-11-22T09:53:34;95969.78;;;1.71;92.62
9225;BME280;4647;48.072;11.616;2023-11-22T09:56:03;95976.22;;;1.70;91.61
9225;BME280;4647;48.072;11.616;2023-11-22T09:58:34;95974.41;;;1.87;91.23
9225;BME280;4647;48.072;11.616;2023-11-22T10:01:03;95963.75;;;1.74;91.37
9225;BME280;4647;48.072;11.616;2023-11-22T10:03:33;95962.59;;;1.88;89.55
9225;BME280;4647;48.072;11.616;2023-11-22T10:06:02;95976.16;;;2.07;88.15
9225;BME280;4647;48.072;11.616;2023-11-22T10:08:33;95961.00;;;2.11;88.92
9225;BME280;4647;48.072;11.616;2023-11-22T10:11:03;95968.38;;;2.14;86.59
9225;BME280;4647;48.072;11.616;2023-11-22T10:13:32;95977.09;;;2.39;86.11
9225;BME280;4647;48.072;11.616;2023-11-22T10:16:13;95971.16;;;2.45;85.42
9225;BME280;4647;48.072;11.616;2023-11-22T10:18:46;95961.66;;;2.20;86.07
9225;BME280;4647;48.072;11.616;2023-11-22T10:21:23;95957.78;;;2.05;86.07
9225;BME280;4647;48.072;11.616;2023-11-22T10:23:56;95962.34;;;2.17;85.34
9225;BME280;4647;48.072;11.616;2023-11-22T10:26:25;95972.38;;;2.08;86.31
9225;BME280;4647;48.072;11.616;2023-11-22T10:28:57;95890.31;;;1.68;86.14
9225;BME280;4647;48.072;11.616;2023-11-22T10:31:29;95973.56;;;2.23;86.35
9225;BME280;4647;48.072;11.616;2023-11-22T10:33:58;95972.81;;;2.10;85.80
9225;BME280;4647;48.072;11.616;2023-11-22T10:36:27;95969.94;;;2.03;86.07
9225;BME280;4647;48.072;11.616;2023-11-22T10:38:58;95982.28;;;2.20;85.89
9225;BME280;4647;48.072;11.616;2023-11-22T10:41:27;95973.09;;;1.93;86.31
9225;BME280;4647;48.072;11.616;2023-11-22T10:43:59;95968.91;;;2.20;85.64
9225;BME280;4647;48.072;11.616;2023-11-22T10:46:29;95972.38;;;2.08;86.41
9225;BME280;4647;48.072;11.616;2023-11-22T10:48:58;95975.22;;;2.27;84.93
9225;BME280;4647;48.072;11.616;2023-11-22T10:51:30;95978.00;;;2.31;84.77
9225;BME280;4647;48.072;11.616;2023-11-22T10:54:02;95977.38;;;2.50;83.29
9225;BME280;4647;48.072;11.616;2023-11-22T10:56:36;95973.78;;;2.58;82.92
9225;BME280;4647;48.072;11.616;2023-11-22T10:59:09;95980.88;;;2.66;82.22
9225;BME280;4647;48.072;11.616;2023-11-22T11:01:44;95989.94;;;2.61;82.02
9225;BME280;4647;48.072;11.616;2023-11-22T11:04:19;95993.44;;;2.50;81.61
9225;BME280;4647;48.072;11.616;2023-11-22T11:06:51;96004.06;;;2.34;81.48
9225;BME280;4647;48.072;11.616;2023-11-22T11:09:24;95986.00;;;2.43;81.11
9225;BME280;4647;48.072;11.616;2023-11-22T11:11:58;96009.53;;;2.37;81.70
9225;BME280;4647;48.072;11.616;2023-11-22T11:14:28;96003.22;;;2.05;84.00
9225;BME280;4647;48.072;11.616;2023-11-22T11:16:57;96018.41;;;2.41;83.26
9225;BME280;4647;48.072;11.616;2023-11-22T11:19:26;96021.44;;;2.40;83.56
9225;BME280;4647;48.072;11.616;2023-11-22T11:21:56;96020.13;;;2.22;83.56
9225;BME280;4647;48.072;11.616;2023-11-22T11:24:28;96028.84;;;2.19;83.81
9225;BME280;4647;48.072;11.616;2023-11-22T11:27:02;96037.41;;;2.12;84.17
9225;BME280;4647;48.072;11.616;2023-11-22T11:29:33;96015.59;;;2.50;81.89
9225;BME280;4647;48.072;11.616;2023-11-22T11:32:09;96012.91;;;2.62;81.22
9225;BME280;4647;48.072;11.616;2023-11-22T11:34:47;96011.81;;;2.51;81.51
9225;BME280;4647;48.072;11.616;2023-11-22T11:37:18;95991.88;;;2.76;81.70
9225;BME280;4647;48.072;11.616;2023-11-22T11:39:50;95998.94;;;3.13;79.47
9225;BME280;4647;48.072;11.616;2023-11-22T11:42:22;95999.91;;;3.20;79.19
9225;BME280;4647;48.072;11.616;2023-11-22T11:45:05;95991.31;;;2.99;78.53
9225;BME280;4647;48.072;11.616;2023-11-22T11:47:35;95987.88;;;3.14;79.01
9225;BME280;4647;48.072;11.616;2023-11-22T11:50:06;95986.16;;;3.22;77.32
9225;BME280;4647;48.072;11.616;2023-11-22T11:52:38;95990.56;;;3.14;78.05
9225;BME280;4647;48.072;11.616;2023-11-22T11:55:17;95994.47;;;3.32;77.13
9225;BME280;4647;48.072;11.616;2023-11-22T11:57:46;95987.31;;;3.36;77.04
9225;BME280;4647;48.072;11.616;2023-11-22T12:00:17;95984.97;;;3.35;76.51
9225;BME280;4647;48.072;11.616;2023-11-22T12:02:48;95973.34;;;2.99;77.50
9225;BME280;4647;48.072;11.616;2023-11-22T12:05:19;95995.50;;;3.28;76.49
9225;BME280;4647;48.072;11.616;2023-11-22T12:08:00;95983.19;;;2.95;76.37
9225;BME280;4647;48.072;11.616;2023-11-22T12:10:35;95991.94;;;3.24;75.88
9225;BME280;4647;48.072;11.616;2023-11-22T12:13:04;95991.44;;;3.50;75.43
9225;BME280;4647;48.072;11.616;2023-11-22T12:15:34;95973.34;;;2.99;75.96
9225;BME280;4647;48.072;11.616;2023-11-22T12:18:03;95989.78;;;3.14;76.52
9225;BME280;4647;48.072;11.616;2023-11-22T12:20:32;95996.84;;;3.06;77.02
9225;BME280;4647;48.072;11.616;2023-11-22T12:23:09;96000.97;;;3.31;75.74
9225;BME280;4647;48.072;11.616;2023-11-22T12:25:40;96010.25;;;3.22;75.61
9225;BME280;4647;48.072;11.616;2023-11-22T12:28:09;96025.47;;;3.18;76.10
9225;BME280;4647;48.072;11.616;2023-11-22T12:30:40;96029.94;;;3.29;75.93
9225;BME280;4647;48.072;11.616;2023-11-22T12:33:11;96027.97;;;3.11;76.50
9225;BME280;4647;48.072;11.616;2023-11-22T12:35:45;96024.34;;;3.19;77.15
9225;BME280;4647;48.072;11.616;2023-11-22T12:38:15;96030.56;;;3.23;76.76
9225;BME280;4647;48.072;11.616;2023-11-22T12:40:47;96020.97;;;2.78;77.87
9225;BME280;4647;48.072;11.616;2023-11-22T12:43:15;96005.84;;;2.70;76.62
9225;BME280;4647;48.072;11.616;2023-11-22T12:45:44;96016.66;;;3.17;74.77
9225;BME280;4647;48.072;11.616;2023-11-22T12:48:23;96011.09;;;2.94;74.73
9225;BME280;4647;48.072;11.616;2023-11-22T12:50:55;96007.97;;;2.92;76.07
9225;BME280;4647;48.072;11.616;2023-11-22T12:53:24;96012.91;;;3.06;75.68
9225;BME280;4647;48.072;11.616;2023-11-22T12:55:57;96012.13;;;2.62;77.09
9225;BME280;4647;48.072;11.616;2023-11-22T12:58:28;96014.25;;;2.84;76.81
9225;BME280;4647;48.072;11.616;2023-11-22T13:00:56;96010.47;;;2.85;77.16
9225;BME280;4647;48.072;11.616;2023-11-22T13:03:26;96030.88;;;3.05;75.85
9225;BME280;4647;48.072;11.616;2023-11-22T13:05:55;96037.69;;;3.03;76.21
9225;BME280;4647;48.072;11.616;2023-11-22T13:08:24;96032.59;;;2.70;77.56
9225;BME280;4647;48.072;11.616;2023-11-22T13:10:57;96032.16;;;2.68;77.58
9225;BME280;4647;48.072;11.616;2023-11-22T13:13:27;96023.53;;;2.46;78.93
9225;BME280;4647;48.072;11.616;2023-11-22T13:15:56;96038.31;;;2.16;77.52
9225;BME280;4647;48.072;11.616;2023-11-22T13:18:25;96046.22;;;2.53;78.17
9225;BME280;4647;48.072;11.616;2023-11-22T13:20:54;96047.25;;;2.48;78.29
9225;BME280;4647;48.072;11.616;2023-11-22T13:23:25;96049.06;;;2.44;78.66
9225;BME280;4647;48.072;11.616;2023-11-22T13:25:55;96034.91;;;2.31;77.96
9225;BME280;4647;48.072;11.616;2023-11-22T13:28:29;96036.25;;;2.37;79.10
9225;BME280;4647;48.072;11.616;2023-11-22T13:30:58;96039.72;;;2.38;79.93
9225;BME280;4647;48.072;11.616;2023-11-22T13:33:26;96050.22;;;2.19;80.49
9225;BME280;4647;48.072;11.616;2023-11-22T13:35:55;96044.25;;;2.50;80.64
9225;BME280;4647;48.072;11.616;2023-11-22T13:38:24;96044.94;;;2.34;80.85